PWSweather.com
Personal Weather Stations
Station Observations
MARICOPA
Cobblestone Farms, Maricopa, AZ 85139

Cobblestone FarmsMaricopa, AZ 85139

Lat: 33.076, Lon: -112.0445

Elevation: 1148

Station Type: LaCrosse 2310/15

http://weather.azkiwis.net

Latest ConditionsUpdated 4:45:15 AM MST Friday, Aug 29, 2014
Currently Today's Max Today's Min Today's Average
Temperature 75.6°F24.2°C 83.8°F28.8°C 75.6°F24.2°C 79.4°F26.3°C
Dew Point 52.1°F11.2°C 52.5°F11.4°C 50.4°F10.2°C 51.4°F10.8°C
Winds 1.0 mph SSE1.6 kmh SSE 1.6 mph SSE2.6 kmh SSE - 0.4 mph 0.6 kmh
Wind Gusts 2.5 mph4.0 kmh 3.6 mph5.8 kmh - -
Humidity 44% 44% 32% 38%
Pressure 29.81 in1009.5 mb 29.81 in1009.5 mb 29.80 in1009.1 mb -
Hour Temp Dew Point Humidity Winds Wind Gusts Pressure Precip Precip Rate Daily Precip Total
04:45 AM 75.6°F24.2°C 52.1°F11.2°C 44% 1.0 mph SSE1.6 kmh SSE 2.5 mph4.0 kmh 29.81 in1009.5 mb 0.00 in0.0 mm 0.00 in/hr0.0 mm/hr 0.00 in0.0 mm
04:30 AM 75.9°F24.4°C 51.8°F11.0°C 43% 1.3 mph SSE2.1 kmh SSE 2.2 mph3.5 kmh 29.80 in1009.1 mb 0.00 in0.0 mm 0.00 in/hr0.0 mm/hr 0.00 in0.0 mm
04:15 AM 76.5°F24.7°C 52.3°F11.3°C 43% 0.3 mph SSE0.5 kmh SSE 2.0 mph3.2 kmh 29.81 in1009.5 mb 0.00 in0.0 mm 0.00 in/hr0.0 mm/hr 0.00 in0.0 mm
04:00 AM 76.6°F24.8°C 52.5°F11.4°C 43% 1.6 mph SSE2.6 kmh SSE 3.6 mph5.8 kmh 29.81 in1009.5 mb 0.00 in0.0 mm 0.00 in/hr0.0 mm/hr 0.00 in0.0 mm
03:45 AM 77.0°F25.0°C 52.1°F11.2°C 42% Calm Calm -- 29.81 in1009.5 mb 0.00 in0.0 mm 0.00 in/hr0.0 mm/hr 0.00 in0.0 mm
03:30 AM 77.0°F25.0°C 51.5°F10.8°C 41% Calm Calm -- 29.80 in1009.1 mb 0.00 in0.0 mm 0.00 in/hr0.0 mm/hr 0.00 in0.0 mm
03:15 AM 77.2°F25.1°C 51.7°F10.9°C 41% Calm Calm -- 29.81 in1009.5 mb 0.00 in0.0 mm 0.00 in/hr0.0 mm/hr 0.00 in0.0 mm
03:00 AM 77.7°F25.4°C 52.1°F11.2°C 41% Calm Calm -- 29.81 in1009.5 mb 0.00 in0.0 mm 0.00 in/hr0.0 mm/hr 0.00 in0.0 mm
02:45 AM 78.3°F25.7°C 51.3°F10.7°C 39% Calm Calm -- 29.81 in1009.5 mb 0.00 in0.0 mm 0.00 in/hr0.0 mm/hr 0.00 in0.0 mm
02:30 AM 79.2°F26.2°C 51.4°F10.8°C 38% Calm Calm -- 29.81 in1009.5 mb 0.00 in0.0 mm 0.00 in/hr0.0 mm/hr 0.00 in0.0 mm
02:15 AM 79.7°F26.5°C 50.4°F10.2°C 36% Calm Calm -- 29.81 in1009.5 mb 0.00 in0.0 mm 0.00 in/hr0.0 mm/hr 0.00 in0.0 mm
02:00 AM 80.2°F26.8°C 51.6°F10.9°C 37% Calm Calm -- 29.81 in1009.5 mb 0.00 in0.0 mm 0.00 in/hr0.0 mm/hr 0.00 in0.0 mm
01:45 AM 80.8°F27.1°C 52.1°F11.2°C 37% 0.1 mph NNW0.2 kmh NNW 0.9 mph1.4 kmh 29.81 in1009.5 mb 0.00 in0.0 mm 0.00 in/hr0.0 mm/hr 0.00 in0.0 mm
01:30 AM 81.1°F27.3°C 50.9°F10.5°C 35% 1.3 mph NNW2.1 kmh NNW 1.8 mph2.9 kmh 29.81 in1009.5 mb 0.00 in0.0 mm 0.00 in/hr0.0 mm/hr 0.00 in0.0 mm
01:15 AM 81.5°F27.5°C 50.4°F10.2°C 34% 0.1 mph SSE0.2 kmh SSE -- 29.81 in1009.5 mb 0.00 in0.0 mm 0.00 in/hr0.0 mm/hr 0.00 in0.0 mm
01:00 AM 81.9°F27.7°C 50.7°F10.4°C 34% Calm Calm -- 29.81 in1009.5 mb 0.00 in0.0 mm 0.00 in/hr0.0 mm/hr 0.00 in0.0 mm
12:45 AM 82.4°F28.0°C 51.2°F10.7°C 34% 0.5 mph SE0.8 kmh SE 3.1 mph5.0 kmh 29.81 in1009.5 mb 0.00 in0.0 mm 0.00 in/hr0.0 mm/hr 0.00 in0.0 mm
12:30 AM 82.8°F28.2°C 50.7°F10.4°C 33% 0.7 mph E1.1 kmh E 2.5 mph4.0 kmh 29.81 in1009.5 mb 0.00 in0.0 mm 0.00 in/hr0.0 mm/hr 0.00 in0.0 mm
12:15 AM 83.1°F28.4°C 51.0°F10.6°C 33% Calm Calm -- 29.80 in1009.1 mb 0.00 in0.0 mm 0.00 in/hr0.0 mm/hr 0.00 in0.0 mm
12:00 AM 83.8°F28.8°C 50.8°F10.4°C 32% 0.6 mph SSE1.0 kmh SSE 1.6 mph2.6 kmh 29.81 in1009.5 mb 0.00 in0.0 mm 0.00 in/hr0.0 mm/hr 0.00 in0.0 mm